createdAt,value
2023-10-20T00:02:00.225Z,13.77
2023-10-20T00:07:01.865Z,13.63
2023-10-20T00:12:05.907Z,13.61
2023-10-20T00:17:07.545Z,13.59
2023-10-20T00:22:09.083Z,13.57
2023-10-20T00:27:10.625Z,13.47
2023-10-20T00:32:12.280Z,13.44
2023-10-20T00:37:13.923Z,13.43
2023-10-20T00:42:15.639Z,13.42
2023-10-20T00:47:18.589Z,13.37
2023-10-20T00:52:21.750Z,13.40
2023-10-20T00:57:24.789Z,13.42
2023-10-20T01:02:26.420Z,13.55
2023-10-20T01:07:28.196Z,13.60
2023-10-20T01:12:29.752Z,13.59
2023-10-20T01:17:32.197Z,13.56
2023-10-20T01:22:34.750Z,13.58
2023-10-20T01:27:36.325Z,13.58
2023-10-20T01:32:39.128Z,13.56
2023-10-20T01:37:41.802Z,13.57
2023-10-20T01:42:43.699Z,13.61
2023-10-20T01:47:45.358Z,13.59
2023-10-20T01:52:47.459Z,13.54
2023-10-20T01:57:49.001Z,13.54
2023-10-20T02:02:50.615Z,13.47
2023-10-20T02:07:52.750Z,13.44
2023-10-20T02:12:54.400Z,13.43
2023-10-20T02:17:56.399Z,13.36
2023-10-20T02:22:57.985Z,13.34
2023-10-20T02:27:59.534Z,13.25
2023-10-20T02:33:03.742Z,13.26
2023-10-20T02:38:05.385Z,13.25
2023-10-20T02:43:08.209Z,13.24
2023-10-20T02:48:09.852Z,13.21
2023-10-20T02:53:11.800Z,13.22
2023-10-20T02:58:13.880Z,13.20
2023-10-20T03:03:15.572Z,13.17
2023-10-20T03:08:18.589Z,13.14
2023-10-20T03:13:20.945Z,13.20
2023-10-20T03:18:22.644Z,13.33
2023-10-20T03:23:25.061Z,13.43
2023-10-20T03:28:27.652Z,13.54
2023-10-20T03:33:29.309Z,13.46
2023-10-20T03:38:31.996Z,13.39
2023-10-20T03:43:35.518Z,13.38
2023-10-20T03:48:37.197Z,13.43
2023-10-20T03:53:48.893Z,13.49
2023-10-20T03:58:50.654Z,13.51
2023-10-20T04:03:52.832Z,13.48
2023-10-20T04:08:56.453Z,13.44
2023-10-20T04:13:58.000Z,13.46
2023-10-20T04:18:59.663Z,13.51
2023-10-20T04:24:01.242Z,13.52
2023-10-20T04:29:14.977Z,13.56
2023-10-20T04:34:35.006Z,13.62
2023-10-20T04:39:55.029Z,13.64
2023-10-20T04:45:19.616Z,13.76
2023-10-20T04:50:40.774Z,13.93
2023-10-20T04:55:54.455Z,14.09
2023-10-20T05:01:06.098Z,14.26
2023-10-20T05:06:21.273Z,14.35
2023-10-20T05:11:22.987Z,14.33
2023-10-20T05:16:27.327Z,14.35
2023-10-20T05:21:29.310Z,14.35
2023-10-20T05:26:34.104Z,14.36
2023-10-20T05:31:35.848Z,14.36
2023-10-20T05:36:37.482Z,14.27
2023-10-20T05:41:39.153Z,14.22
2023-10-20T05:46:41.693Z,14.20
2023-10-20T05:51:44.834Z,14.22
2023-10-20T05:56:46.493Z,14.24
2023-10-20T06:01:48.212Z,14.28
2023-10-20T06:06:49.844Z,14.35
2023-10-20T06:11:51.604Z,14.40
2023-10-20T06:16:53.768Z,14.42
2023-10-20T06:21:57.151Z,14.39
2023-10-20T06:27:03.816Z,14.45
2023-10-20T06:32:27.014Z,14.48
2023-10-20T06:37:43.387Z,14.56
2023-10-20T06:42:46.001Z,14.57
2023-10-20T06:47:47.939Z,14.56
2023-10-20T06:52:49.648Z,14.64
2023-10-20T06:57:51.401Z,14.64
2023-10-20T07:02:53.176Z,14.63
2023-10-20T07:07:59.207Z,14.70
2023-10-20T07:13:01.664Z,14.72
2023-10-20T07:18:06.616Z,14.85
2023-10-20T07:23:08.828Z,15.00
2023-10-20T07:28:10.703Z,15.05
2023-10-20T07:33:12.492Z,15.10
2023-10-20T07:38:18.408Z,15.18
2023-10-20T07:43:20.780Z,15.25
2023-10-20T07:48:22.737Z,15.31
2023-10-20T07:53:24.465Z,15.43
2023-10-20T07:58:30.924Z,15.47
2023-10-20T08:03:32.697Z,15.22
2023-10-20T08:08:34.516Z,14.78
2023-10-20T08:13:36.265Z,14.34
2023-10-20T08:18:37.994Z,14.05
2023-10-20T08:23:39.947Z,14.02
2023-10-20T08:28:41.584Z,14.04
2023-10-20T08:33:43.882Z,14.14
2023-10-20T08:38:48.408Z,14.41
2023-10-20T08:43:53.631Z,14.73
2023-10-20T08:48:57.380Z,15.04
2023-10-20T08:53:59.263Z,15.33
2023-10-20T08:59:00.912Z,15.44
2023-10-20T09:04:02.629Z,15.52
2023-10-20T09:09:07.417Z,15.52
2023-10-20T09:14:09.086Z,15.58
2023-10-20T09:19:12.383Z,15.65
2023-10-20T09:24:15.797Z,15.66
2023-10-20T09:29:18.613Z,15.68
2023-10-20T09:34:20.228Z,15.79
2023-10-20T09:39:37.064Z,15.82
2023-10-20T09:44:44.972Z,15.96
2023-10-20T09:49:47.552Z,16.09
2023-10-20T09:54:51.658Z,16.34
2023-10-20T09:59:56.690Z,16.39
2023-10-20T10:04:59.387Z,16.41
2023-10-20T10:10:01.585Z,16.42
2023-10-20T10:15:15.399Z,16.23
2023-10-20T10:20:25.596Z,16.35
2023-10-20T10:25:38.043Z,16.67
2023-10-20T10:30:40.975Z,16.84
2023-10-20T10:35:42.638Z,17.36
2023-10-20T10:41:00.309Z,18.06
2023-10-20T10:46:06.779Z,18.58
2023-10-20T10:51:08.455Z,18.71
2023-10-20T10:56:10.432Z,18.61
2023-10-20T11:01:12.537Z,18.76
2023-10-20T11:06:14.270Z,18.95
2023-10-20T11:11:17.332Z,18.94
2023-10-20T11:16:19.113Z,19.01
2023-10-20T11:21:23.262Z,19.09
2023-10-20T11:26:28.071Z,19.13
2023-10-20T11:31:33.158Z,19.10
2023-10-20T11:36:35.586Z,19.02
2023-10-20T11:41:37.265Z,19.09
2023-10-20T11:46:44.745Z,19.28
2023-10-20T11:51:46.602Z,19.58
2023-10-20T11:56:48.411Z,19.90
2023-10-20T12:01:50.121Z,20.11
2023-10-20T12:06:51.789Z,20.06
2023-10-20T12:11:54.076Z,19.97
2023-10-20T12:16:55.965Z,20.01
2023-10-20T12:21:57.729Z,19.98
2023-10-20T12:27:00.279Z,20.01
2023-10-20T12:32:03.893Z,19.80
2023-10-20T12:37:06.449Z,19.70
2023-10-20T12:42:08.524Z,19.44
2023-10-20T12:47:11.640Z,19.22
2023-10-20T12:52:15.856Z,19.00
2023-10-20T12:57:17.966Z,18.86
2023-10-20T13:02:19.626Z,18.74
2023-10-20T13:07:21.417Z,18.67
2023-10-20T13:12:23.422Z,18.67
2023-10-20T13:17:25.067Z,18.74
2023-10-20T13:22:27.133Z,18.71
2023-10-20T13:27:28.908Z,18.60
2023-10-20T13:32:30.564Z,18.49
2023-10-20T13:37:33.556Z,18.42
2023-10-20T13:42:35.665Z,18.32
2023-10-20T13:47:37.333Z,18.19
2023-10-20T13:52:38.958Z,17.98
2023-10-20T13:57:41.065Z,17.71
2023-10-20T14:02:43.639Z,17.54
2023-10-20T14:07:46.417Z,17.38
2023-10-20T14:12:48.498Z,17.20
2023-10-20T14:17:51.265Z,16.99
2023-10-20T14:22:52.957Z,16.77
2023-10-20T14:27:54.754Z,16.61
2023-10-20T14:32:56.409Z,16.31
2023-10-20T14:37:58.137Z,15.77
2023-10-20T14:42:59.696Z,15.76
2023-10-20T14:48:01.354Z,15.81
2023-10-20T14:53:06.553Z,15.61
2023-10-20T14:58:08.118Z,15.41
2023-10-20T15:03:12.234Z,15.27
2023-10-20T15:08:14.602Z,15.24
2023-10-20T15:13:16.281Z,15.25
2023-10-20T15:18:19.581Z,15.25
2023-10-20T15:23:21.304Z,15.21
2023-10-20T15:28:23.036Z,15.20
2023-10-20T15:33:24.690Z,15.15
2023-10-20T15:38:26.283Z,15.05
2023-10-20T15:43:31.510Z,14.95
2023-10-20T15:48:33.237Z,14.85
2023-10-20T15:53:34.966Z,14.77
2023-10-20T15:58:36.661Z,14.72
2023-10-20T16:03:38.382Z,14.62
2023-10-20T16:08:40.222Z,14.53
2023-10-20T16:13:41.836Z,14.48
2023-10-20T16:18:43.681Z,14.42
2023-10-20T16:23:45.485Z,14.34
2023-10-20T16:28:48.561Z,14.28
2023-10-20T16:33:50.221Z,14.12
2023-10-20T16:38:53.315Z,14.00
2023-10-20T16:43:55.325Z,13.95
2023-10-20T16:48:57.918Z,13.95
2023-10-20T16:53:59.546Z,13.87
2023-10-20T16:59:01.126Z,13.68
2023-10-20T17:04:02.806Z,13.45
2023-10-20T17:09:05.718Z,13.31
2023-10-20T17:14:07.431Z,13.12
2023-10-20T17:19:08.981Z,12.97
2023-10-20T17:24:11.364Z,12.81
2023-10-20T17:29:18.705Z,12.64
2023-10-20T17:34:20.308Z,12.49
2023-10-20T17:39:21.863Z,12.36
2023-10-20T17:44:24.932Z,12.19
2023-10-20T17:49:27.046Z,11.98
2023-10-20T17:54:28.596Z,11.80
2023-10-20T17:59:30.553Z,11.68
2023-10-20T18:04:32.164Z,11.48
2023-10-20T18:09:34.071Z,11.25
2023-10-20T18:14:35.953Z,11.14
2023-10-20T18:19:49.101Z,11.04
2023-10-20T18:24:52.479Z,10.96
2023-10-20T18:29:54.176Z,10.86
2023-10-20T18:34:55.731Z,10.75
2023-10-20T18:40:00.651Z,10.70
2023-10-20T18:45:02.255Z,10.81
2023-10-20T18:50:03.931Z,10.88
2023-10-20T18:55:05.948Z,11.05
2023-10-20T19:00:08.207Z,11.31
2023-10-20T19:05:14.518Z,11.62
2023-10-20T19:10:17.806Z,12.02
2023-10-20T19:15:19.414Z,12.38
2023-10-20T19:20:23.153Z,12.77
2023-10-20T19:25:24.771Z,12.98
2023-10-20T19:30:26.300Z,13.07
2023-10-20T19:35:27.886Z,13.08
2023-10-20T19:40:29.468Z,13.13
2023-10-20T19:45:31.006Z,13.20
2023-10-20T19:50:32.743Z,13.27
2023-10-20T19:55:34.349Z,13.33
2023-10-20T20:00:35.955Z,13.39
2023-10-20T20:05:37.561Z,13.47
2023-10-20T20:10:39.176Z,13.55
2023-10-20T20:15:41.230Z,13.68
2023-10-20T20:20:48.819Z,13.80
2023-10-20T20:25:50.528Z,13.88
2023-10-20T20:30:52.183Z,14.02
2023-10-20T20:35:56.089Z,14.05
2023-10-20T20:40:57.683Z,14.13
2023-10-20T20:45:59.302Z,14.16
2023-10-20T20:51:01.053Z,14.16
2023-10-20T20:56:02.618Z,14.17
2023-10-20T21:01:11.569Z,14.21
2023-10-20T21:06:13.835Z,14.25
2023-10-20T21:11:15.451Z,14.04
2023-10-20T21:16:17.070Z,13.83
2023-10-20T21:21:18.628Z,13.82
2023-10-20T21:26:20.179Z,13.85
2023-10-20T21:31:21.735Z,13.75
2023-10-20T21:36:23.318Z,13.73
2023-10-20T21:41:25.005Z,13.73
2023-10-20T21:46:27.881Z,13.69
2023-10-20T21:51:29.647Z,13.66
2023-10-20T21:56:31.216Z,13.63
2023-10-20T22:01:33.047Z,13.63
2023-10-20T22:06:34.679Z,13.72
2023-10-20T22:11:36.394Z,13.76
2023-10-20T22:16:38.075Z,13.78
2023-10-20T22:21:39.654Z,13.85
2023-10-20T22:26:41.294Z,14.00
2023-10-20T22:31:43.396Z,14.40
2023-10-20T22:36:45.171Z,14.67
2023-10-20T22:41:47.129Z,14.80
2023-10-20T22:46:48.749Z,15.11
2023-10-20T22:51:50.307Z,15.23
2023-10-20T22:56:51.865Z,15.27
2023-10-20T23:01:53.667Z,15.22
2023-10-20T23:06:55.390Z,15.16
2023-10-20T23:11:57.506Z,15.09
2023-10-20T23:17:00.182Z,15.01
2023-10-20T23:22:01.796Z,14.97
2023-10-20T23:27:03.618Z,15.07
2023-10-20T23:32:05.600Z,15.30
2023-10-20T23:37:08.708Z,15.41
2023-10-20T23:42:10.365Z,15.51
2023-10-20T23:47:11.988Z,15.57
2023-10-20T23:52:13.627Z,15.64
2023-10-20T23:57:15.243Z,15.66
